map of ENF home
ENF - Airport
Location
City:  Enontekio, Lappi (Lappland, Lapland), Finland
ICAO:EFET
IATA:ENF

Details
Type:Airport (Aerodrome, Airfield)
Latitude:6821'45"N (68.362586)
Longitude:2325'28"E (23.424322)
Datum:WGS 1984
Elevation:1005 ft (306 m)
Variation:11.38E (WMM2015v2 magnetic declination)
0.25 annual change
Runways:1
Longest:6565 × 148 ft (2001 × 45 m), paved

Time
Time Zone:UTC+2 (DST+3)
Local Time:

Weather
METAR:EFET 041350Z AUTO 36008KT 330V040 9999 -SN BKN041 M23/M26 Q1016

Related Locations
Nearby:
Farthest:NZTB: 11487 mi / 18486 km
Terra Nova Bay [Mario Zucchelli Station], AQ

Find:

   beyond  
but within

Other Information
Maps:
NOTAMs:
Links:
Sources:

  
  • flag of Finland
  

Sectional Chart

Flight Planning
at skyvector.com

Satellite Image

Google Maps Satellite view

 

Copyright © 2004-2019 Karl L. Swartz. All rights reserved.
The Great Circle Mapper name and logo are trademarks of the Great Circle Mapper.
All other trademarks mentioned herein belong to their respective owners.
Please see credits for attibutions and further copyright information.

  Follow gcmap on Facebook Follow gcmap on Twitter GCmap on LinkedIn

hCard Microformat

Geo Microformat